createdAt,value
2018-09-26T00:00:58.644Z,99.99
2018-09-26T00:01:58.548Z,99.99
2018-09-26T00:02:58.476Z,99.99
2018-09-26T00:03:58.423Z,99.99
2018-09-26T00:04:58.314Z,99.99
2018-09-26T00:05:58.227Z,99.93
2018-09-26T00:06:58.146Z,99.84
2018-09-26T00:07:58.057Z,99.99
2018-09-26T00:08:57.980Z,99.99
2018-09-26T00:09:57.909Z,99.84
2018-09-26T00:10:57.862Z,99.46
2018-09-26T00:11:57.729Z,98.98
2018-09-26T00:12:57.659Z,99.46
2018-09-26T00:13:57.646Z,98.50
2018-09-26T00:14:57.511Z,98.13
2018-09-26T00:15:57.398Z,97.93
2018-09-26T00:16:57.323Z,98.13
2018-09-26T00:17:57.235Z,97.84
2018-09-26T00:20:39.436Z,99.46
2018-09-26T00:23:21.514Z,97.36
2018-09-26T00:24:21.410Z,97.55
2018-09-26T00:25:21.997Z,96.79
2018-09-26T00:26:23.117Z,96.89
2018-09-26T00:27:21.044Z,97.55
2018-09-26T00:28:20.943Z,97.55
2018-09-26T00:29:20.855Z,96.70
2018-09-26T00:30:20.894Z,96.12
2018-09-26T00:31:20.705Z,96.12
2018-09-26T00:32:20.640Z,96.31
2018-09-26T00:33:20.571Z,96.41
2018-09-26T00:34:20.450Z,96.31
2018-09-26T00:35:20.397Z,96.89
2018-09-26T00:36:20.305Z,96.51
2018-09-26T00:37:20.197Z,96.70
2018-09-26T00:38:20.133Z,96.98
2018-09-26T00:39:20.036Z,96.60
2018-09-26T00:40:19.988Z,97.55
2018-09-26T00:41:19.900Z,97.17
2018-09-26T00:42:19.793Z,97.55
2018-09-26T00:43:19.706Z,97.55
2018-09-26T00:44:19.634Z,97.08
2018-09-26T00:45:19.548Z,96.98
2018-09-26T00:46:19.501Z,97.17
2018-09-26T00:47:19.378Z,97.93
2018-09-26T00:48:19.301Z,98.32
2018-09-26T00:49:19.220Z,98.13
2018-09-26T00:50:19.174Z,98.32
2018-09-26T00:51:19.080Z,98.50
2018-09-26T00:52:18.979Z,98.60
2018-09-26T00:53:18.943Z,98.60
2018-09-26T00:56:00.878Z,98.83
2018-09-26T00:57:00.804Z,99.02
2018-09-26T00:58:00.688Z,99.50
2018-09-26T00:59:00.620Z,99.31
2018-09-26T01:00:00.610Z,99.02
2018-09-26T01:01:00.504Z,99.98
2018-09-26T01:02:00.353Z,99.88
2018-09-26T01:03:00.333Z,99.88
2018-09-26T01:04:00.205Z,99.99
2018-09-26T01:05:00.120Z,99.46
2018-09-26T01:06:00.033Z,99.99
2018-09-26T01:06:59.973Z,99.36
2018-09-26T01:07:59.874Z,99.79
2018-09-26T01:08:59.790Z,99.36
2018-09-26T01:09:59.698Z,99.50
2018-09-26T01:10:59.624Z,99.99
2018-09-26T01:11:59.562Z,99.98
2018-09-26T01:12:59.459Z,99.79
2018-09-26T01:13:59.370Z,99.98
2018-09-26T01:16:41.369Z,99.99
2018-09-26T01:17:41.310Z,99.99
2018-09-26T01:18:41.194Z,99.99
2018-09-26T01:19:41.129Z,99.99
2018-09-26T01:20:41.035Z,99.99
2018-09-26T01:21:40.982Z,99.99
2018-09-26T01:22:40.893Z,99.99
2018-09-26T01:23:40.819Z,99.99
2018-09-26T01:24:40.701Z,99.99
2018-09-26T01:25:40.636Z,99.99
2018-09-26T01:26:40.683Z,99.99
2018-09-26T01:27:40.479Z,99.99
2018-09-26T01:28:40.374Z,99.99
2018-09-26T01:29:40.297Z,99.99
2018-09-26T01:30:40.209Z,99.99
2018-09-26T01:31:40.159Z,99.99
2018-09-26T01:32:40.044Z,99.99
2018-09-26T01:35:21.863Z,99.99
2018-09-26T01:36:21.784Z,99.99
2018-09-26T01:37:21.720Z,99.99
2018-09-26T01:38:21.652Z,99.99
2018-09-26T01:39:21.539Z,99.99
2018-09-26T01:40:21.464Z,99.99
2018-09-26T01:41:21.422Z,99.99
2018-09-26T01:42:21.290Z,99.99
2018-09-26T01:43:21.226Z,99.99
2018-09-26T01:44:21.137Z,99.99
2018-09-26T01:45:21.037Z,99.99
2018-09-26T01:46:20.953Z,99.99
2018-09-26T01:47:20.875Z,99.99
2018-09-26T01:48:20.820Z,99.99
2018-09-26T01:49:20.716Z,99.99
2018-09-26T01:50:20.633Z,99.99
2018-09-26T01:51:20.554Z,99.99
2018-09-26T01:54:02.386Z,99.99
2018-09-26T01:55:02.299Z,99.88
2018-09-26T01:56:02.215Z,99.79
2018-09-26T01:57:02.123Z,99.79
2018-09-26T01:58:02.042Z,99.99
2018-09-26T01:59:03.039Z,99.99
2018-09-26T02:00:01.880Z,99.79
2018-09-26T02:01:01.804Z,99.98
2018-09-26T02:02:01.725Z,99.99
2018-09-26T02:03:01.650Z,99.99
2018-09-26T02:04:01.569Z,99.99
2018-09-26T02:05:01.465Z,99.99
2018-09-26T02:06:01.385Z,99.99
2018-09-26T02:07:01.310Z,99.99
2018-09-26T02:08:01.223Z,99.99
2018-09-26T02:09:01.161Z,99.99
2018-09-26T02:10:01.080Z,99.99
2018-09-26T02:11:00.974Z,99.99
2018-09-26T02:12:00.889Z,99.99
2018-09-26T02:13:00.811Z,99.99
2018-09-26T02:14:00.740Z,99.99
2018-09-26T02:15:00.653Z,99.99
2018-09-26T02:16:00.557Z,99.99
2018-09-26T02:17:00.484Z,99.99
2018-09-26T02:18:00.387Z,99.99
2018-09-26T02:19:00.318Z,99.99
2018-09-26T02:20:00.237Z,99.99
2018-09-26T02:21:00.143Z,99.99
2018-09-26T02:22:00.057Z,99.99
2018-09-26T02:22:59.986Z,99.99
2018-09-26T02:23:59.888Z,99.99
2018-09-26T02:24:59.830Z,99.99
2018-09-26T02:25:59.735Z,99.99
2018-09-26T02:26:59.653Z,99.99
2018-09-26T02:27:59.568Z,99.99
2018-09-26T02:28:59.499Z,99.99
2018-09-26T02:29:59.419Z,99.99
2018-09-26T02:30:59.315Z,99.99
2018-09-26T02:31:59.230Z,99.99
2018-09-26T02:32:59.156Z,99.99
2018-09-26T02:33:59.069Z,99.99
2018-09-26T02:35:00.073Z,99.99
2018-09-26T02:35:58.893Z,99.99
2018-09-26T02:36:58.831Z,99.99
2018-09-26T02:37:58.806Z,99.99
2018-09-26T02:38:58.659Z,99.99
2018-09-26T02:39:58.589Z,99.99
2018-09-26T02:40:58.518Z,99.99
2018-09-26T02:41:58.421Z,99.99
2018-09-26T02:42:58.340Z,99.99
2018-09-26T02:43:58.230Z,99.99
2018-09-26T02:44:58.188Z,99.99
2018-09-26T02:45:58.072Z,99.99
2018-09-26T02:46:57.991Z,99.99
2018-09-26T02:47:57.956Z,99.99
2018-09-26T02:48:57.830Z,99.99
2018-09-26T02:49:57.758Z,99.99
2018-09-26T02:50:57.696Z,99.99
2018-09-26T02:51:57.576Z,99.99
2018-09-26T02:52:57.502Z,99.99
2018-09-26T02:53:57.417Z,99.99
2018-09-26T02:54:57.390Z,99.99
2018-09-26T02:55:57.265Z,99.99
2018-09-26T02:56:57.183Z,99.99
2018-09-26T02:57:57.084Z,99.99
2018-09-26T03:00:39.401Z,99.99
2018-09-26T03:01:39.299Z,99.99
2018-09-26T03:02:39.207Z,99.99
2018-09-26T03:05:21.435Z,99.99
2018-09-26T03:06:21.334Z,99.99
2018-09-26T03:07:21.239Z,99.99
2018-09-26T03:10:03.387Z,99.99
2018-09-26T03:11:04.381Z,99.99
2018-09-26T03:12:03.211Z,99.99
2018-09-26T03:14:45.390Z,99.99
2018-09-26T03:17:27.411Z,99.99
2018-09-26T03:20:09.383Z,99.99
2018-09-26T03:21:09.332Z,99.99
2018-09-26T03:22:09.216Z,99.99
2018-09-26T03:23:09.131Z,99.99
2018-09-26T03:24:09.062Z,99.99
2018-09-26T03:25:08.977Z,99.99
2018-09-26T03:26:08.901Z,99.99
2018-09-26T03:29:48.891Z,99.99
2018-09-26T03:30:48.800Z,99.99
2018-09-26T03:31:49.746Z,99.99
2018-09-26T03:32:48.626Z,99.99
2018-09-26T03:33:48.703Z,99.99
2018-09-26T03:34:48.466Z,99.99
2018-09-26T03:35:48.385Z,99.99
2018-09-26T03:36:48.525Z,99.99
2018-09-26T03:43:07.095Z,99.99
2018-09-26T03:44:06.983Z,99.99
2018-09-26T03:45:06.887Z,99.99
2018-09-26T03:46:06.813Z,99.99
2018-09-26T03:47:06.746Z,99.99
2018-09-26T03:48:06.683Z,99.99
2018-09-26T03:49:06.609Z,99.99
2018-09-26T03:50:06.481Z,99.99
2018-09-26T03:51:06.483Z,99.99
2018-09-26T03:52:06.331Z,99.99
2018-09-26T03:53:06.237Z,99.99
2018-09-26T03:55:48.381Z,99.99
2018-09-26T03:56:48.333Z,99.99
2018-09-26T03:57:48.326Z,99.99
2018-09-26T03:58:48.140Z,99.99
2018-09-26T03:59:48.061Z,99.99
2018-09-26T04:00:48.126Z,99.99
2018-09-26T04:01:47.888Z,99.99
2018-09-26T04:02:47.924Z,99.99
2018-09-26T04:03:47.725Z,99.99
2018-09-26T04:07:54.417Z,99.99
2018-09-26T04:08:54.372Z,99.99
2018-09-26T04:09:54.233Z,99.99
2018-09-26T04:10:54.191Z,99.99
2018-09-26T04:11:54.077Z,99.99
2018-09-26T04:12:54.065Z,99.99
2018-09-26T04:13:53.889Z,99.99
2018-09-26T04:16:35.891Z,99.99
2018-09-26T04:17:56.923Z,99.99
2018-09-26T04:18:35.728Z,99.99
2018-09-26T04:19:35.706Z,99.99
2018-09-26T04:20:35.563Z,99.99
2018-09-26T04:21:35.530Z,99.99
2018-09-26T04:22:35.397Z,99.99
2018-09-26T04:23:35.492Z,99.99
2018-09-26T04:24:35.237Z,99.99
2018-09-26T04:25:35.148Z,99.99
2018-09-26T04:26:35.097Z,99.99
2018-09-26T04:27:35.008Z,99.99
2018-09-26T04:28:34.917Z,99.99
2018-09-26T04:29:34.922Z,99.99
2018-09-26T04:30:34.800Z,99.99
2018-09-26T04:31:34.649Z,99.99
2018-09-26T04:32:34.599Z,99.99
2018-09-26T04:33:34.602Z,99.99
2018-09-26T04:34:34.396Z,99.99
2018-09-26T04:35:34.324Z,99.99
2018-09-26T04:36:34.237Z,99.99
2018-09-26T04:37:34.150Z,99.99
2018-09-26T04:38:34.125Z,99.99
2018-09-26T04:39:34.009Z,99.99
2018-09-26T04:40:33.997Z,99.99
2018-09-26T04:43:15.977Z,99.99
2018-09-26T04:44:37.004Z,99.99
2018-09-26T04:45:15.729Z,99.99
2018-09-26T04:47:57.913Z,99.99
2018-09-26T04:48:57.980Z,99.99
2018-09-26T04:49:57.744Z,99.99
2018-09-26T04:50:57.759Z,99.99
2018-09-26T04:51:57.589Z,99.99
2018-09-26T04:52:57.513Z,99.99
2018-09-26T04:53:57.505Z,99.99
2018-09-26T04:54:57.354Z,99.99
2018-09-26T04:55:57.253Z,99.99
2018-09-26T04:56:57.229Z,99.99
2018-09-26T04:57:57.117Z,99.99
2018-09-26T04:58:57.053Z,99.99
2018-09-26T04:59:56.921Z,99.99
2018-09-26T05:00:56.840Z,99.99
2018-09-26T05:01:56.756Z,99.99
2018-09-26T05:02:56.701Z,99.99
2018-09-26T05:03:56.590Z,99.99
2018-09-26T05:04:57.533Z,99.99
2018-09-26T05:05:56.437Z,99.99
2018-09-26T05:08:38.420Z,99.99
2018-09-26T05:09:38.431Z,99.99
2018-09-26T05:10:38.274Z,99.99
2018-09-26T05:11:38.220Z,99.99
2018-09-26T05:12:38.104Z,99.99
2018-09-26T05:13:38.011Z,99.99
2018-09-26T05:14:37.948Z,99.99
2018-09-26T05:15:37.938Z,99.99
2018-09-26T05:16:37.768Z,99.99
2018-09-26T05:19:19.912Z,99.99
2018-09-26T05:20:19.991Z,99.99
2018-09-26T05:21:19.751Z,99.99
2018-09-26T05:22:19.747Z,99.99
2018-09-26T05:23:19.618Z,99.99
2018-09-26T05:24:19.554Z,99.99
2018-09-26T05:25:19.435Z,99.99
2018-09-26T05:26:19.362Z,99.99
2018-09-26T05:27:19.258Z,99.99
2018-09-26T05:30:01.434Z,99.99
2018-09-26T05:31:03.470Z,99.99
2018-09-26T05:32:01.253Z,99.99
2018-09-26T05:33:01.260Z,99.99
2018-09-26T05:34:01.098Z,99.99
2018-09-26T05:36:42.940Z,99.99
2018-09-26T05:37:42.900Z,99.99
2018-09-26T05:38:42.763Z,99.99
2018-09-26T05:39:42.699Z,99.99
2018-09-26T05:40:42.611Z,99.99
2018-09-26T05:41:42.664Z,99.99
2018-09-26T05:42:42.441Z,99.99
2018-09-26T05:45:24.417Z,99.99
2018-09-26T05:46:24.474Z,99.99
2018-09-26T05:47:24.273Z,99.99
2018-09-26T05:51:07.472Z,99.99
2018-09-26T05:52:07.369Z,99.99
2018-09-26T05:53:07.281Z,99.99
2018-09-26T05:54:07.171Z,99.99
2018-09-26T05:57:11.453Z,99.99
2018-09-26T05:58:11.352Z,99.99
2018-09-26T05:59:11.263Z,99.99
2018-09-26T06:01:53.465Z,99.99
2018-09-26T06:02:53.370Z,99.99
2018-09-26T06:03:53.284Z,99.99
2018-09-26T06:04:53.194Z,99.99
2018-09-26T06:05:53.086Z,99.99
2018-09-26T06:06:53.027Z,99.99
2018-09-26T06:07:52.959Z,99.99
2018-09-26T06:08:52.864Z,99.99
2018-09-26T06:09:52.768Z,99.99
2018-09-26T06:12:34.933Z,99.99
2018-09-26T06:15:16.948Z,99.99
2018-09-26T06:16:16.843Z,99.99
2018-09-26T06:17:16.801Z,99.99
2018-09-26T06:18:17.717Z,99.99
2018-09-26T06:19:16.609Z,99.99
2018-09-26T06:20:16.524Z,99.99
2018-09-26T06:21:16.437Z,99.99
2018-09-26T06:24:03.951Z,99.99
2018-09-26T06:25:03.860Z,99.99
2018-09-26T06:26:03.763Z,99.99
2018-09-26T06:28:45.984Z,99.99
2018-09-26T06:30:06.835Z,99.99
2018-09-26T06:30:45.781Z,99.99
2018-09-26T06:31:45.723Z,99.99
2018-09-26T06:34:10.455Z,99.99
2018-09-26T06:36:52.423Z,99.99
2018-09-26T06:37:53.392Z,99.99
2018-09-26T06:38:52.308Z,99.99
2018-09-26T06:39:54.194Z,99.99
2018-09-26T06:40:52.103Z,99.99
2018-09-26T06:41:52.030Z,99.99
2018-09-26T06:42:51.935Z,99.99
2018-09-26T06:43:52.925Z,99.99
2018-09-26T06:44:51.780Z,99.99
2018-09-26T06:45:51.700Z,99.99
2018-09-26T06:49:48.456Z,99.99
2018-09-26T06:50:48.367Z,99.36
2018-09-26T06:51:48.274Z,99.36
2018-09-26T06:52:48.174Z,99.08
2018-09-26T06:53:48.127Z,99.08
2018-09-26T06:54:48.066Z,98.88
2018-09-26T06:55:47.959Z,99.08
2018-09-26T06:56:47.838Z,98.60
2018-09-26T06:57:47.807Z,98.32
2018-09-26T07:00:55.941Z,96.75
2018-09-26T07:03:37.939Z,97.03
2018-09-26T07:04:37.926Z,96.17
2018-09-26T07:05:37.814Z,96.46
2018-09-26T07:06:37.689Z,94.98
2018-09-26T07:07:37.594Z,94.89
2018-09-26T07:08:37.562Z,94.13
2018-09-26T07:09:37.511Z,93.08
2018-09-26T07:10:37.377Z,92.50
2018-09-26T07:11:37.428Z,91.69
2018-09-26T07:12:37.207Z,91.69
2018-09-26T07:13:37.105Z,90.50
2018-09-26T07:14:37.053Z,89.07
2018-09-26T07:15:36.949Z,88.21
2018-09-26T07:16:36.871Z,87.30
2018-09-26T07:17:36.785Z,86.06
2018-09-26T07:18:36.707Z,86.82
2018-09-26T07:19:36.624Z,85.97
2018-09-26T07:20:37.583Z,86.88
2018-09-26T07:21:36.452Z,86.78
2018-09-26T07:22:36.414Z,86.98
2018-09-26T07:23:36.297Z,86.06
2018-09-26T07:24:36.216Z,85.49
2018-09-26T07:25:36.168Z,85.49
2018-09-26T07:28:18.457Z,83.05
2018-09-26T07:31:00.440Z,81.71
2018-09-26T07:32:00.354Z,81.90
2018-09-26T07:33:00.267Z,82.67
2018-09-26T07:34:00.207Z,83.05
2018-09-26T07:35:00.121Z,81.27
2018-09-26T07:36:00.068Z,80.70
2018-09-26T07:36:59.947Z,79.50
2018-09-26T07:37:59.873Z,79.27
2018-09-26T07:38:59.827Z,79.94
2018-09-26T07:39:59.718Z,80.04
2018-09-26T07:40:59.643Z,80.04
2018-09-26T07:43:41.932Z,80.07
2018-09-26T07:44:41.858Z,78.64
2018-09-26T07:45:41.858Z,78.79
2018-09-26T07:48:23.946Z,77.82
2018-09-26T07:49:23.922Z,77.44
2018-09-26T07:50:23.797Z,76.14
2018-09-26T07:51:24.745Z,76.33
2018-09-26T07:52:23.604Z,75.52
2018-09-26T07:53:23.546Z,76.64
2018-09-26T07:54:23.455Z,78.16
2018-09-26T07:57:05.465Z,77.44
2018-09-26T07:58:05.369Z,76.77
2018-09-26T07:59:05.348Z,76.45
2018-09-26T08:00:05.287Z,77.34
2018-09-26T08:01:05.108Z,76.39
2018-09-26T08:02:06.077Z,75.43
2018-09-26T08:03:04.975Z,75.52
2018-09-26T08:04:04.888Z,75.91
2018-09-26T08:05:04.800Z,75.43
2018-09-26T08:06:04.784Z,74.95
2018-09-26T08:07:04.667Z,74.80
2018-09-26T08:08:04.580Z,72.54
2018-09-26T08:09:04.485Z,71.62
2018-09-26T08:10:04.400Z,71.39
2018-09-26T08:11:04.309Z,71.87
2018-09-26T08:12:04.290Z,71.20
2018-09-26T08:13:04.162Z,70.09
2018-09-26T08:15:46.441Z,69.80
2018-09-26T08:16:46.378Z,69.17
2018-09-26T08:17:46.309Z,68.40
2018-09-26T08:18:46.222Z,67.91
2018-09-26T08:19:46.137Z,66.80
2018-09-26T08:20:46.073Z,66.58
2018-09-26T08:21:45.989Z,66.80
2018-09-26T08:22:45.929Z,66.58
2018-09-26T08:23:45.826Z,66.86
2018-09-26T08:26:27.961Z,64.76
2018-09-26T08:27:27.939Z,64.28
2018-09-26T08:28:27.796Z,63.60
2018-09-26T08:31:09.940Z,62.77
2018-09-26T08:32:10.899Z,62.68
2018-09-26T08:33:09.816Z,62.55
2018-09-26T08:34:09.720Z,62.87
2018-09-26T08:35:09.637Z,62.04
2018-09-26T08:36:09.569Z,61.46
2018-09-26T08:37:09.469Z,60.08
2018-09-26T08:38:09.424Z,61.24
2018-09-26T08:39:09.332Z,61.91
2018-09-26T08:40:09.249Z,62.13
2018-09-26T08:41:09.162Z,61.30
2018-09-26T08:43:51.553Z,62.23
2018-09-26T08:44:51.400Z,62.13
2018-09-26T08:45:51.302Z,60.17
2018-09-26T08:46:51.226Z,58.18
2018-09-26T08:47:51.163Z,57.22
2018-09-26T08:48:51.063Z,58.51
2018-09-26T08:49:50.992Z,59.64
2018-09-26T08:50:50.940Z,59.44
2018-09-26T08:51:50.833Z,59.41
2018-09-26T08:52:50.788Z,58.35
2018-09-26T08:53:50.716Z,58.89
2018-09-26T08:54:50.594Z,59.25
2018-09-26T08:55:50.545Z,59.83
2018-09-26T08:56:50.447Z,59.73
2018-09-26T08:57:50.375Z,59.25
2018-09-26T08:58:50.344Z,59.34
2018-09-26T08:59:50.351Z,59.38
2018-09-26T09:00:50.136Z,59.25
2018-09-26T09:01:50.057Z,58.32
2018-09-26T09:04:31.984Z,56.45
2018-09-26T09:05:31.896Z,57.51
2018-09-26T09:06:31.952Z,56.36
2018-09-26T09:07:31.767Z,55.85
2018-09-26T09:08:31.653Z,55.82
2018-09-26T09:09:31.600Z,56.07
2018-09-26T09:10:31.517Z,55.04
2018-09-26T09:11:31.503Z,55.04
2018-09-26T09:12:31.337Z,54.56
2018-09-26T09:13:31.294Z,54.65
2018-09-26T09:14:31.324Z,54.36
2018-09-26T09:17:13.456Z,54.65
2018-09-26T09:18:13.406Z,55.01
2018-09-26T09:19:13.377Z,55.63
2018-09-26T09:20:13.251Z,56.62
2018-09-26T09:21:13.159Z,56.81
2018-09-26T09:23:55.483Z,57.68
2018-09-26T09:24:55.449Z,59.29
2018-09-26T09:25:55.329Z,60.31
2018-09-26T09:26:55.254Z,61.08
2018-09-26T09:27:55.160Z,62.13
2018-09-26T09:30:37.489Z,61.94
2018-09-26T09:31:37.490Z,62.04
2018-09-26T09:32:37.310Z,62.20
2018-09-26T09:33:37.253Z,63.80
2018-09-26T09:34:37.162Z,65.20
2018-09-26T09:35:37.109Z,65.97
2018-09-26T09:36:37.045Z,65.97
2018-09-26T09:37:36.956Z,66.45
2018-09-26T09:38:36.859Z,66.74
2018-09-26T09:41:18.996Z,66.64
2018-09-26T09:42:18.920Z,67.44
2018-09-26T09:43:18.809Z,66.54
2018-09-26T09:44:18.819Z,66.86
2018-09-26T09:45:18.682Z,66.48
2018-09-26T09:46:18.606Z,66.42
2018-09-26T09:47:18.510Z,65.75
2018-09-26T09:48:18.439Z,64.82
2018-09-26T09:49:18.344Z,64.34
2018-09-26T09:50:18.330Z,62.84
2018-09-26T09:51:18.222Z,61.21
2018-09-26T09:52:18.149Z,60.11
2018-09-26T09:53:18.039Z,58.83
2018-09-26T09:56:00.014Z,55.77
2018-09-26T09:56:59.949Z,54.49
2018-09-26T09:57:59.822Z,54.80
2018-09-26T09:58:59.747Z,54.16
2018-09-26T09:59:59.657Z,53.67
2018-09-26T10:00:59.631Z,53.70
2018-09-26T10:01:59.554Z,53.41
2018-09-26T10:02:59.743Z,52.93
2018-09-26T10:03:59.369Z,51.32
2018-09-26T10:04:59.283Z,50.67
2018-09-26T10:05:59.213Z,49.77
2018-09-26T10:06:59.177Z,50.26
2018-09-26T10:07:59.043Z,50.93
2018-09-26T10:08:58.988Z,49.96
2018-09-26T10:09:58.935Z,50.71
2018-09-26T10:12:41.109Z,51.46
2018-09-26T10:13:40.996Z,52.18
2018-09-26T10:14:40.851Z,52.95
2018-09-26T10:15:40.801Z,54.13
2018-09-26T10:16:40.706Z,52.06
2018-09-26T10:17:40.701Z,52.16
2018-09-26T10:18:40.539Z,49.51
2018-09-26T10:19:40.523Z,48.88
2018-09-26T10:20:40.396Z,49.77
2018-09-26T10:21:40.334Z,50.76
2018-09-26T10:22:40.267Z,50.31
2018-09-26T10:23:40.196Z,47.67
2018-09-26T10:24:40.102Z,47.27
2018-09-26T10:25:40.017Z,48.33
2018-09-26T10:26:39.935Z,48.61
2018-09-26T10:27:40.900Z,47.65
2018-09-26T10:28:39.830Z,48.08
2018-09-26T10:29:39.728Z,48.30
2018-09-26T10:30:39.658Z,47.53
2018-09-26T10:33:21.531Z,48.37
2018-09-26T10:36:03.499Z,47.53
2018-09-26T10:38:45.510Z,47.24
2018-09-26T10:39:45.496Z,47.43
2018-09-26T10:40:45.428Z,46.75
2018-09-26T10:43:27.527Z,46.44
2018-09-26T10:44:27.422Z,47.00
2018-09-26T10:45:27.343Z,47.70
2018-09-26T10:46:27.426Z,46.47
2018-09-26T10:47:27.210Z,45.76
2018-09-26T10:48:28.159Z,45.94
2018-09-26T10:49:27.271Z,46.61
2018-09-26T10:50:27.013Z,47.58
2018-09-26T10:51:26.913Z,47.53
2018-09-26T10:54:09.070Z,46.47
2018-09-26T10:55:08.928Z,45.72
2018-09-26T10:56:09.008Z,46.49
2018-09-26T10:57:08.817Z,46.34
2018-09-26T10:58:08.723Z,46.20
2018-09-26T10:59:09.819Z,46.86
2018-09-26T11:00:08.577Z,46.97
2018-09-26T11:01:08.519Z,46.71
2018-09-26T11:02:08.557Z,46.42
2018-09-26T11:03:08.376Z,47.09
2018-09-26T11:04:08.351Z,46.64
2018-09-26T11:05:08.220Z,46.25
2018-09-26T11:06:08.160Z,45.04
2018-09-26T11:07:08.077Z,45.11
2018-09-26T11:08:08.037Z,45.72
2018-09-26T11:09:07.965Z,46.28
2018-09-26T11:10:07.892Z,47.07
2018-09-26T11:11:07.823Z,46.33
2018-09-26T11:12:07.728Z,46.66
2018-09-26T11:13:07.658Z,45.91
2018-09-26T11:14:07.637Z,44.65
2018-09-26T11:15:07.547Z,43.85
2018-09-26T11:16:07.485Z,45.79
2018-09-26T11:17:07.373Z,45.59
2018-09-26T11:18:07.277Z,45.42
2018-09-26T11:19:08.232Z,45.42
2018-09-26T11:20:07.165Z,45.21
2018-09-26T11:21:07.091Z,46.20
2018-09-26T11:22:07.031Z,45.06
2018-09-26T11:24:49.064Z,45.33
2018-09-26T11:25:48.946Z,45.91
2018-09-26T11:26:48.876Z,44.67
2018-09-26T11:29:31.040Z,44.96
2018-09-26T11:32:13.049Z,44.56
2018-09-26T11:34:55.064Z,43.80
2018-09-26T11:35:54.965Z,44.53
2018-09-26T11:36:54.882Z,44.94
2018-09-26T11:37:54.814Z,45.57
2018-09-26T11:38:54.754Z,46.20
2018-09-26T11:39:55.705Z,46.97
2018-09-26T11:40:54.734Z,47.41
2018-09-26T11:41:54.558Z,46.95
2018-09-26T11:42:54.452Z,46.61
2018-09-26T11:43:54.400Z,46.61
2018-09-26T11:44:54.386Z,46.95
2018-09-26T11:45:54.293Z,47.14
2018-09-26T11:46:54.182Z,45.69
2018-09-26T11:47:54.108Z,44.53
2018-09-26T11:48:54.027Z,45.00
2018-09-26T11:51:36.075Z,46.69
2018-09-26T11:52:35.966Z,46.88
2018-09-26T11:53:35.903Z,47.19
2018-09-26T11:56:18.362Z,47.50
2018-09-26T11:57:18.028Z,46.83
2018-09-26T11:58:17.946Z,45.76
2018-09-26T11:59:17.838Z,45.67
2018-09-26T12:00:17.771Z,45.67
2018-09-26T12:01:17.721Z,46.17
2018-09-26T12:02:17.715Z,45.67
2018-09-26T12:03:17.567Z,46.54
2018-09-26T12:04:17.465Z,46.64
2018-09-26T12:05:17.389Z,46.15
2018-09-26T12:06:17.397Z,46.49
2018-09-26T12:07:17.312Z,46.83
2018-09-26T12:08:17.183Z,49.00
2018-09-26T12:09:17.072Z,50.04
2018-09-26T12:10:17.030Z,51.33
2018-09-26T12:11:16.972Z,52.55
2018-09-26T12:12:16.923Z,52.84
2018-09-26T12:13:16.863Z,52.65
2018-09-26T12:14:16.707Z,53.52
2018-09-26T12:15:16.640Z,54.57
2018-09-26T12:16:16.696Z,53.70
2018-09-26T12:18:58.563Z,55.56
2018-09-26T12:19:58.581Z,55.15
2018-09-26T12:20:58.383Z,54.28
2018-09-26T12:21:58.323Z,54.86
2018-09-26T12:22:58.221Z,54.09
2018-09-26T12:23:59.165Z,54.86
2018-09-26T12:24:58.082Z,54.50
2018-09-26T12:25:59.020Z,54.69
2018-09-26T12:26:57.920Z,53.92
2018-09-26T12:27:57.875Z,53.54
2018-09-26T12:28:57.755Z,53.92
2018-09-26T12:29:57.688Z,52.48
2018-09-26T12:30:57.595Z,53.92
2018-09-26T12:31:57.537Z,54.41
2018-09-26T12:32:57.433Z,53.64
2018-09-26T12:33:57.383Z,52.87
2018-09-26T12:34:57.439Z,53.16
2018-09-26T12:35:57.200Z,52.87
2018-09-26T12:36:57.138Z,53.92
2018-09-26T12:37:57.050Z,54.12
2018-09-26T12:38:56.956Z,54.41
2018-09-26T12:39:56.898Z,52.97
2018-09-26T12:40:56.819Z,53.06
2018-09-26T12:41:56.762Z,53.06
2018-09-26T12:42:56.654Z,54.02
2018-09-26T12:43:56.593Z,53.92
2018-09-26T12:44:56.509Z,54.41
2018-09-26T12:45:56.447Z,52.97
2018-09-26T12:46:56.322Z,52.87
2018-09-26T12:47:56.271Z,53.16
2018-09-26T12:48:56.182Z,52.77
2018-09-26T12:49:56.107Z,52.75
2018-09-26T12:50:56.023Z,52.58
2018-09-26T12:51:55.960Z,53.32
2018-09-26T12:52:55.996Z,51.88
2018-09-26T12:53:55.968Z,52.36
2018-09-26T12:54:55.703Z,52.26
2018-09-26T12:55:55.743Z,53.90
2018-09-26T12:56:55.591Z,53.90
2018-09-26T12:57:55.491Z,53.92
2018-09-26T12:58:55.417Z,53.64
2018-09-26T12:59:55.300Z,54.31
2018-09-26T13:00:55.250Z,53.86
2018-09-26T13:01:55.148Z,52.97
2018-09-26T13:02:55.061Z,53.83
2018-09-26T13:03:55.015Z,54.41
2018-09-26T13:04:54.910Z,54.47
2018-09-26T13:05:54.826Z,54.22
2018-09-26T13:06:54.751Z,54.69
2018-09-26T13:07:54.704Z,54.47
2018-09-26T13:08:54.583Z,53.80
2018-09-26T13:09:54.512Z,54.00
2018-09-26T13:10:54.432Z,55.37
2018-09-26T13:13:36.572Z,54.89
2018-09-26T13:14:36.469Z,54.79
2018-09-26T13:15:36.402Z,53.92
2018-09-26T13:18:18.626Z,55.18
2018-09-26T13:19:18.504Z,53.25
2018-09-26T13:20:18.422Z,53.92
2018-09-26T13:21:18.325Z,53.92
2018-09-26T13:22:18.259Z,54.57
2018-09-26T13:23:18.200Z,53.90
2018-09-26T13:24:18.122Z,53.35
2018-09-26T13:25:18.065Z,52.94
2018-09-26T13:26:17.989Z,53.35
2018-09-26T13:27:17.855Z,54.12
2018-09-26T13:28:17.820Z,54.60
2018-09-26T13:29:17.708Z,54.22
2018-09-26T13:30:17.661Z,54.12
2018-09-26T13:31:17.619Z,53.16
2018-09-26T13:32:17.483Z,52.68
2018-09-26T13:34:59.604Z,53.92
2018-09-26T13:35:59.479Z,53.74
2018-09-26T13:36:59.401Z,54.89
2018-09-26T13:37:59.512Z,53.35
2018-09-26T13:38:59.325Z,53.06
2018-09-26T13:41:41.059Z,53.92
2018-09-26T13:44:23.150Z,52.58
2018-09-26T13:45:22.985Z,52.29
2018-09-26T13:46:23.012Z,52.77
2018-09-26T13:47:22.828Z,52.58
2018-09-26T13:48:22.848Z,52.58
2018-09-26T13:49:22.687Z,53.45
2018-09-26T13:50:22.632Z,53.92
2018-09-26T13:51:22.547Z,53.92
2018-09-26T13:52:22.499Z,52.97
2018-09-26T13:53:22.363Z,53.25
2018-09-26T13:54:22.288Z,53.35
2018-09-26T13:55:22.200Z,53.35
2018-09-26T13:56:22.179Z,52.61
2018-09-26T13:57:22.043Z,52.20
2018-09-26T13:58:22.028Z,52.03
2018-09-26T13:59:21.867Z,52.39
2018-09-26T14:00:21.842Z,52.77
2018-09-26T14:03:04.064Z,52.97
2018-09-26T14:04:04.021Z,51.91
2018-09-26T14:05:04.020Z,51.93
2018-09-26T14:06:03.876Z,52.42
2018-09-26T14:07:03.759Z,52.42
2018-09-26T14:08:03.686Z,51.64
2018-09-26T14:09:03.593Z,52.03
2018-09-26T14:10:03.519Z,51.53
2018-09-26T14:11:03.477Z,51.62
2018-09-26T14:12:03.380Z,52.00
2018-09-26T14:13:03.293Z,51.43
2018-09-26T14:14:03.205Z,51.53
2018-09-26T14:15:03.126Z,51.81
2018-09-26T14:16:03.091Z,51.04
2018-09-26T14:17:02.963Z,50.76
2018-09-26T14:18:02.984Z,50.46
2018-09-26T14:19:02.798Z,50.66
2018-09-26T14:21:45.106Z,50.85
2018-09-26T14:22:45.080Z,49.89
2018-09-26T14:23:44.928Z,49.41
2018-09-26T14:24:44.849Z,49.12
2018-09-26T14:25:44.786Z,49.53
2018-09-26T14:26:44.709Z,49.33
2018-09-26T14:27:44.621Z,49.82
2018-09-26T14:28:44.554Z,49.51
2018-09-26T14:29:44.454Z,49.22
2018-09-26T14:32:26.669Z,48.83
2018-09-26T14:33:26.584Z,49.02
2018-09-26T14:34:26.435Z,49.69
2018-09-26T14:35:26.428Z,49.51
2018-09-26T14:36:26.290Z,50.01
2018-09-26T14:37:26.190Z,49.60
2018-09-26T14:38:26.196Z,49.41
2018-09-26T14:39:26.090Z,49.60
2018-09-26T14:40:25.969Z,49.99
2018-09-26T14:41:25.956Z,50.10
2018-09-26T14:42:25.784Z,49.82
2018-09-26T14:43:25.707Z,49.82
2018-09-26T14:44:25.746Z,49.72
2018-09-26T14:45:25.695Z,50.20
2018-09-26T14:46:25.596Z,50.10
2018-09-26T14:47:25.470Z,49.63
2018-09-26T14:48:25.330Z,49.72
2018-09-26T14:49:25.472Z,49.72
2018-09-26T14:50:25.231Z,49.82
2018-09-26T14:51:25.082Z,50.10
2018-09-26T14:52:25.019Z,50.10
2018-09-26T14:53:25.039Z,50.30
2018-09-26T14:54:24.860Z,50.59
2018-09-26T14:57:07.091Z,51.26
2018-09-26T14:58:07.152Z,51.17
2018-09-26T14:59:06.978Z,50.97
2018-09-26T15:00:06.903Z,51.35
2018-09-26T15:01:06.769Z,51.26
2018-09-26T15:02:06.756Z,51.84
2018-09-26T15:03:06.653Z,51.45
2018-09-26T15:04:06.564Z,52.32
2018-09-26T15:05:06.448Z,52.70